Time;durP1;ratioP1;P1;durP2;ratioP2;P2;SDS_P1;SDS_P2;PMS_P1;PMS_P2;Temp;Humidity;BMP_temperature;BMP_pressure;BME280_temperature;BME280_humidity;BME280_pressure;Samples;Min_cycle;Max_cycle;Signal;HPM_P1;HPM_P2
2022/01/14 00:02:11;;;;;;;34.97;17.37;;;;;;;-4.61;100.00;101982.00;5009403;28;20061;-70
2022/01/14 00:04:38;;;;;;;35.27;16.87;;;;;;;-4.53;100.00;101967.81;5009522;28;20121;-69
2022/01/14 00:07:04;;;;;;;35.50;17.60;;;;;;;-4.87;100.00;101898.22;5009447;28;20124;-69
2022/01/14 00:09:31;;;;;;;38.83;18.77;;;;;;;-4.64;100.00;101969.00;5009563;28;20469;-70
2022/01/14 00:11:57;;;;;;;29.67;16.87;;;;;;;-4.84;100.00;101971.63;5009430;28;20080;-68
2022/01/14 00:16:54;;;;;;;38.57;18.33;;;;;;;-4.83;100.00;101983.50;5009124;28;20050;-66
2022/01/14 00:19:19;;;;;;;31.47;18.13;;;;;;;-4.82;100.00;101985.31;5009254;28;20041;-69
2022/01/14 00:21:45;;;;;;;35.67;17.63;;;;;;;-4.88;100.00;101979.53;5009276;28;20064;-69
2022/01/14 00:32:20;;;;;;;41.97;20.60;;;;;;;-5.03;100.00;101961.81;5069108;28;20142;-71
2022/01/14 00:34:46;;;;;;;35.33;18.30;;;;;;;-5.20;100.00;101943.72;5070693;28;20021;-71
2022/01/14 00:37:14;;;;;;;41.53;19.30;;;;;;;-5.36;100.00;101911.63;5070417;28;20390;-70
2022/01/14 00:39:40;;;;;;;40.55;19.13;;;;;;;-5.51;100.00;101851.84;5070621;28;20047;-71
2022/01/14 00:42:07;;;;;;;33.07;18.10;;;;;;;-4.78;100.00;101959.78;5070928;28;20125;-70
2022/01/14 00:44:33;;;;;;;36.70;19.57;;;;;;;-4.72;100.00;101958.00;5071220;28;20173;-70
2022/01/14 00:47:01;;;;;;;38.30;19.30;;;;;;;-4.75;100.00;101955.13;5070794;28;20518;-70
2022/01/14 00:49:26;;;;;;;38.17;19.87;;;;;;;-5.04;100.00;101886.97;5071044;28;20064;-73
2022/01/14 00:51:52;;;;;;;42.03;19.60;;;;;;;-4.97;100.00;101893.66;5070240;28;20059;-71
2022/01/14 00:54:18;;;;;;;37.27;19.07;;;;;;;-4.69;100.00;101936.44;5067470;28;20044;-71
2022/01/14 00:59:16;;;;;;;37.97;19.30;;;;;;;-4.58;100.00;101941.13;5070134;28;20115;-70
2022/01/14 01:01:52;;;;;;;36.63;19.20;;;;;;;-4.53;100.00;101945.13;5069730;28;20780;-71
2022/01/14 01:04:32;;;;;;;38.47;19.60;;;;;;;-4.54;100.00;101925.66;5068952;28;20394;-70
2022/01/14 01:06:59;;;;;;;37.17;19.27;;;;;;;-4.53;100.00;101919.03;5069987;28;20036;-71
2022/01/14 01:09:26;;;;;;;38.47;20.10;;;;;;;-4.52;100.00;101914.16;5069871;28;20032;-68
2022/01/14 01:12:05;;;;;;;37.67;19.50;;;;;;;-4.51;100.00;101900.84;5070809;28;20031;-68
2022/01/14 01:14:41;;;;;;;34.77;18.97;;;;;;;-4.65;100.00;101879.00;5069753;28;20043;-70
2022/01/14 01:17:07;;;;;;;35.50;18.13;;;;;;;-4.89;100.00;101856.81;5067758;28;20043;-71
2022/01/14 01:19:33;;;;;;;41.40;20.53;;;;;;;-4.64;100.00;101906.00;5069877;28;20066;-71
2022/01/14 01:21:58;;;;;;;35.37;17.97;;;;;;;-4.96;100.00;101849.22;5069794;28;20103;-70
2022/01/14 01:24:24;;;;;;;38.77;18.77;;;;;;;-4.67;100.00;101907.25;5069827;28;20052;-69
2022/01/14 01:26:51;;;;;;;38.17;19.33;;;;;;;-4.80;100.00;101890.66;5069917;28;20032;-70
2022/01/14 01:29:32;;;;;;;38.17;20.23;;;;;;;-4.74;100.00;101911.56;5069838;28;20115;-70
2022/01/14 01:31:57;;;;;;;41.13;19.53;;;;;;;-5.05;100.00;101846.50;5069715;28;20028;-71
2022/01/14 01:34:25;;;;;;;41.53;20.10;;;;;;;-4.83;100.00;101874.28;5070057;28;20024;-71
2022/01/14 01:36:53;;;;;;;38.53;19.60;;;;;;;-5.06;100.00;101827.06;5070398;28;20046;-71
2022/01/14 01:39:21;;;;;;;36.20;18.90;;;;;;;-4.76;100.00;101875.22;5070448;28;20035;-73
2022/01/14 01:41:51;;;;;;;36.10;19.07;;;;;;;-4.78;100.00;101874.13;5070191;28;20028;-71
2022/01/14 01:44:17;;;;;;;;;;;;;;;-4.84;100.00;101870.84;5071472;28;20029;-71
2022/01/14 01:46:46;;;;;;;32.97;15.87;;;;;;;-5.00;100.00;101869.72;5074697;28;20289;-72
2022/01/14 01:49:14;;;;;;;33.50;16.85;;;;;;;-5.38;100.00;101812.38;5074451;28;20042;-71
2022/01/14 01:51:42;;;;;;;39.73;19.03;;;;;;;-5.17;100.00;101862.63;5074342;28;20071;-70
2022/01/14 01:54:07;;;;;;;35.17;18.40;;;;;;;-5.49;100.00;101820.22;5073254;28;20016;-71
2022/01/14 01:56:33;;;;;;;38.20;18.80;;;;;;;-5.61;100.00;101802.00;5073479;28;20710;-71
2022/01/14 01:58:58;;;;;;;35.23;18.50;;;;;;;-5.29;100.00;101862.03;5073248;28;20051;-70
2022/01/14 02:01:25;;;;;;;42.47;19.23;;;;;;;-5.34;100.00;101845.47;5073438;28;20055;-71
2022/01/14 02:03:53;;;;;;;37.23;20.73;;;;;;;-5.44;100.00;101845.97;5073490;28;20032;-70
2022/01/14 02:06:20;;;;;;;42.05;20.55;;;;;;;-5.78;100.00;101794.91;5073449;28;20048;-73
2022/01/14 02:08:47;;;;;;;40.40;21.27;;;;;;;-5.48;100.00;101852.22;5073656;28;20443;-71
2022/01/14 02:11:12;;;;;;;38.30;19.13;;;;;;;-5.51;100.00;101854.34;5073969;28;20111;-71
2022/01/14 02:13:38;;;;;;;38.47;20.07;;;;;;;-5.48;100.00;101844.69;5072790;28;20111;-71
2022/01/14 02:23:48;;;;;;;35.87;18.10;;;;;;;-5.85;100.00;101789.84;5093531;28;20039;-70
2022/01/14 02:26:17;;;;;;;39.57;18.67;;;;;;;-5.62;100.00;101835.44;5093373;28;20055;-70
2022/01/14 02:28:42;;;;;;;39.40;19.20;;;;;;;-5.78;100.00;101812.53;5092988;28;20401;-71
2022/01/14 02:31:08;;;;;;;47.10;23.63;;;;;;;-5.83;100.00;101803.50;5092665;28;20027;-71
2022/01/14 02:33:34;;;;;;;38.97;20.23;;;;;;;-5.81;100.00;101801.19;5092960;28;20024;-71
2022/01/14 02:36:00;;;;;;;41.87;20.73;;;;;;;-5.77;100.00;101799.25;5092767;28;20542;-72
2022/01/14 02:38:26;;;;;;;39.90;20.20;;;;;;;-5.76;100.00;101803.53;5092922;28;20035;-71
2022/01/14 02:40:51;;;;;;;38.60;19.77;;;;;;;-5.84;100.00;101796.66;5092376;28;20036;-71
2022/01/14 02:43:17;;;;;;;41.13;20.37;;;;;;;-5.99;100.00;101792.28;5093305;28;20071;-68
2022/01/14 02:45:51;;;;;;;39.80;20.30;;;;;;;-5.94;100.00;101798.78;5093503;28;20036;-74
2022/01/14 02:48:18;;;;;;;41.37;19.83;;;;;;;-5.96;100.00;101790.13;5075270;28;20500;-70
2022/01/14 02:51:07;;;;;;;39.03;20.67;;;;;;;-6.02;100.00;101800.34;5093543;28;20051;-71
2022/01/14 02:56:24;;;;;;;39.37;19.30;;;;;;;-6.20;100.00;101763.78;5041019;28;21486;-71
2022/01/14 02:58:51;;;;;;;38.30;18.27;;;;;;;-6.12;100.00;101774.78;5092163;28;20100;-71
2022/01/14 03:01:24;;;;;;;35.73;18.53;;;;;;;-6.16;100.00;101770.09;5092925;28;20031;-70
2022/01/14 03:03:54;;;;;;;38.80;20.53;;;;;;;-6.12;100.00;101768.13;5093250;28;20057;-71
2022/01/14 03:06:20;;;;;;;37.13;18.93;;;;;;;-6.31;100.00;101724.75;5093413;28;20028;-71
2022/01/14 03:08:46;;;;;;;36.93;18.93;;;;;;;-6.06;100.00;101755.44;5092957;28;20488;-71
2022/01/14 03:11:19;;;;;;;41.07;21.13;;;;;;;-6.07;100.00;101751.09;5093121;28;20024;-71
2022/01/14 03:13:46;;;;;;;41.60;20.73;;;;;;;-6.07;100.00;101749.50;5091669;28;20024;-72
2022/01/14 03:16:12;;;;;;;43.00;20.73;;;;;;;-6.08;100.00;101751.81;5092553;28;20055;-69
2022/01/14 03:18:46;;;;;;;43.03;21.87;;;;;;;-6.07;100.00;101753.63;5093064;28;20032;-71
2022/01/14 03:21:14;;;;;;;39.77;19.47;;;;;;;-6.08;100.00;101740.16;5091536;28;20390;-70
2022/01/14 03:23:47;;;;;;;40.33;21.13;;;;;;;-6.18;100.00;101712.06;5092571;28;20036;-71
2022/01/14 03:26:15;;;;;;;40.53;19.57;;;;;;;-6.11;100.00;101732.22;5092644;28;20028;-71
2022/01/14 03:28:41;;;;;;;39.83;20.53;;;;;;;-6.08;100.00;101727.59;5092675;28;20044;-71
2022/01/14 03:31:07;;;;;;;40.30;21.77;;;;;;;-6.08;100.00;101720.06;5092828;28;20534;-68
2022/01/14 03:33:34;;;;;;;40.63;19.93;;;;;;;-6.07;100.00;101708.38;5092989;28;20024;-71
2022/01/14 03:35:59;;;;;;;40.70;19.40;;;;;;;-6.14;100.00;101709.25;5092897;28;20118;-68
2022/01/14 03:38:25;;;;;;;43.53;21.03;;;;;;;-6.07;100.00;101694.19;5092352;28;20115;-70
2022/01/14 03:40:51;;;;;;;43.37;22.17;;;;;;;-6.11;100.00;101689.50;5072941;28;20425;-70
2022/01/14 03:43:16;;;;;;;43.07;20.47;;;;;;;-6.00;100.00;101698.34;5092600;28;20525;-70
2022/01/14 03:45:42;;;;;;;41.63;21.20;;;;;;;-5.94;100.00;101700.69;5092473;28;20097;-70
2022/01/14 03:48:08;;;;;;;36.00;20.00;;;;;;;-5.97;100.00;101695.28;5092191;28;20032;-70
2022/01/14 03:50:35;;;;;;;38.47;19.90;;;;;;;-6.00;100.00;101692.44;5092526;28;20035;-70
2022/01/14 03:53:01;;;;;;;40.20;20.10;;;;;;;-6.05;100.00;101690.25;5091850;28;20027;-70
2022/01/14 03:55:26;;;;;;;40.57;20.37;;;;;;;-6.14;100.00;101691.66;5092066;28;20028;-70
2022/01/14 03:57:52;;;;;;;38.50;20.73;;;;;;;-6.27;100.00;101689.22;5092232;28;20026;-70
2022/01/14 04:00:18;;;;;;;42.17;20.27;;;;;;;-6.19;100.00;101703.63;5068875;28;20040;-70
2022/01/14 04:02:45;;;;;;;39.20;20.40;;;;;;;-6.41;100.00;101658.97;5069216;28;20123;-70
2022/01/14 04:05:11;;;;;;;35.23;19.83;;;;;;;-6.13;100.00;101711.03;5069087;28;20422;-71
2022/01/14 04:07:36;;;;;;;34.73;18.77;;;;;;;-6.16;100.00;101692.16;5068711;28;20021;-70
2022/01/14 04:10:04;;;;;;;45.07;21.50;;;;;;;-6.10;100.00;101696.31;5068825;28;20051;-70
2022/01/14 04:12:45;;;;;;;43.10;21.30;;;;;;;-6.12;100.00;101695.22;5068906;28;20031;-70
2022/01/14 04:17:58;;;;;;;44.90;21.43;;;;;;;-6.10;100.00;101700.47;5049373;28;20082;-70
2022/01/14 04:20:23;;;;;;;45.03;20.87;;;;;;;-6.24;100.00;101666.06;5048280;28;20529;-71
2022/01/14 04:22:49;;;;;;;36.70;20.27;;;;;;;-6.11;100.00;101704.56;5048859;28;20049;-71
2022/01/14 04:25:15;;;;;;;39.10;20.07;;;;;;;-6.34;100.00;101657.41;5048987;28;20556;-71
2022/01/14 04:27:41;;;;;;;39.60;20.53;;;;;;;-6.13;100.00;101702.59;5048676;28;20040;-71
2022/01/14 04:30:07;;;;;;;40.40;20.47;;;;;;;-6.31;100.00;101661.03;5048993;28;20499;-71
2022/01/14 04:32:33;;;;;;;40.57;19.67;;;;;;;-6.27;100.00;101690.84;5050197;28;20403;-70
2022/01/14 04:34:58;;;;;;;39.33;20.40;;;;;;;-6.15;100.00;101696.50;5051072;28;20037;-71
2022/01/14 04:37:24;;;;;;;40.13;19.23;;;;;;;-6.36;100.00;101671.38;5050984;28;20111;-69
2022/01/14 04:39:49;;;;;;;36.07;18.93;;;;;;;-6.38;100.00;101654.31;5051230;28;20544;-73
2022/01/14 04:42:15;;;;;;;41.33;18.37;;;;;;;-6.25;100.00;101672.72;5051408;28;20455;-71
2022/01/14 04:44:40;;;;;;;40.53;20.30;;;;;;;-6.12;100.00;101679.25;5051337;28;20059;-70
2022/01/14 04:47:18;;;;;;;39.53;18.33;;;;;;;-6.11;100.00;101674.41;5051078;28;20735;-70
2022/01/14 04:49:43;;;;;;;40.07;19.20;;;;;;;-6.09;100.00;101670.47;5050917;28;20559;-70
2022/01/14 04:52:09;;;;;;;33.67;18.37;;;;;;;-6.14;100.00;101666.50;5050923;28;20029;-71
2022/01/14 04:54:35;;;;;;;35.33;18.87;;;;;;;-6.10;100.00;101671.19;5048630;28;20483;-70
2022/01/14 04:57:01;;;;;;;31.93;16.33;;;;;;;-6.06;100.00;101670.84;5050796;28;20037;-70
2022/01/14 04:59:27;;;;;;;32.30;16.63;;;;;;;-6.00;100.00;101669.81;5051120;28;20025;-71
2022/01/14 05:01:56;;;;;;;34.17;17.27;;;;;;;-5.95;100.00;101678.78;5051036;28;20064;-70
2022/01/14 05:04:21;;;;;;;34.42;17.63;;;;;;;-5.94;100.00;101662.97;5050987;28;20029;-70
2022/01/14 05:06:54;;;;;;;31.30;17.87;;;;;;;-5.91;100.00;101664.22;5050738;28;20066;-71
2022/01/14 05:09:27;;;;;;;32.83;17.90;;;;;;;-5.94;100.00;101668.91;5050608;28;20112;-70
2022/01/14 05:11:58;;;;;;;36.80;18.63;;;;;;;-6.02;100.00;101659.53;5050952;28;20025;-70
2022/01/14 05:14:23;;;;;;;43.37;21.80;;;;;;;-6.02;100.00;101664.56;5050702;28;20059;-70
2022/01/14 05:16:48;;;;;;;41.20;21.53;;;;;;;-6.12;100.00;101649.97;5082667;28;20044;-70
2022/01/14 05:19:14;;;;;;;39.07;20.13;;;;;;;-6.02;100.00;101650.41;5089845;28;20028;-68
2022/01/14 05:21:40;;;;;;;39.50;22.37;;;;;;;-6.06;100.00;101647.31;5090981;28;20020;-70
2022/01/14 05:24:05;;;;;;;38.37;20.90;;;;;;;-6.93;100.00;101506.16;5088569;28;20040;-70
2022/01/14 05:26:31;;;;;;;40.40;19.53;;;;;;;-6.23;100.00;101647.75;5071534;28;20043;-70
2022/01/14 05:28:56;;;;;;;36.40;20.33;;;;;;;-6.29;100.00;101634.44;5090808;28;20097;-71
2022/01/14 05:31:50;;;;;;;41.40;20.77;;;;;;;-6.32;100.00;101632.47;5089707;28;20551;-70
2022/01/14 05:34:15;;;;;;;39.50;20.50;;;;;;;-6.35;100.00;101633.00;5090509;28;20036;-70
2022/01/14 05:36:41;;;;;;;37.83;19.37;;;;;;;-6.44;100.00;101610.84;5090640;28;20062;-70
2022/01/14 05:39:09;;;;;;;37.33;19.27;;;;;;;-6.30;100.00;101623.50;5090770;28;20028;-71
2022/01/14 05:41:34;;;;;;;37.87;19.20;;;;;;;-6.45;100.00;101592.38;5090578;28;20044;-70
2022/01/14 05:44:01;;;;;;;40.57;20.63;;;;;;;-6.21;100.00;101628.75;5090514;28;20024;-70
2022/01/14 05:46:27;;;;;;;40.53;20.40;;;;;;;-6.31;100.00;101611.66;5088735;28;20030;-71
2022/01/14 05:48:53;;;;;;;39.70;19.93;;;;;;;-6.66;100.00;101552.97;5089296;28;20058;-70
2022/01/14 05:51:18;;;;;;;37.63;19.53;;;;;;;-6.23;100.00;101621.03;5088735;28;20024;-71
2022/01/14 05:53:44;;;;;;;41.17;20.97;;;;;;;-6.15;100.00;101613.53;5089341;28;20074;-71
2022/01/14 05:56:09;;;;;;;43.73;23.40;;;;;;;-6.08;100.00;101616.06;5088827;28;20019;-71
2022/01/14 05:58:35;;;;;;;42.00;20.40;;;;;;;-6.16;100.00;101605.06;5088714;28;20070;-72
2022/01/14 06:01:00;;;;;;;40.63;21.57;;;;;;;-6.23;100.00;101593.38;5090518;28;20458;-71
2022/01/14 06:03:26;;;;;;;39.07;20.13;;;;;;;-6.27;100.00;101588.69;5090498;28;20478;-71
2022/01/14 06:05:51;;;;;;;35.23;19.37;;;;;;;-6.13;100.00;101605.47;5089426;28;20081;-70
2022/01/14 06:08:17;;;;;;;38.40;20.37;;;;;;;-6.14;100.00;101592.69;5089686;28;20569;-71
2022/01/14 06:10:42;;;;;;;36.10;18.67;;;;;;;-6.04;100.00;101600.66;5089861;28;20028;-70
2022/01/14 06:13:08;;;;;;;35.20;18.83;;;;;;;-6.06;100.00;101597.94;5089384;28;20797;-71
2022/01/14 06:15:33;;;;;;;35.30;19.63;;;;;;;-6.05;100.00;101593.81;5089414;28;20044;-70
2022/01/14 06:17:59;;;;;;;38.70;19.63;;;;;;;-5.97;100.00;101592.19;5089361;28;20059;-71
2022/01/14 06:20:24;;;;;;;39.57;19.73;;;;;;;-5.86;100.00;101601.91;5070329;28;20483;-71
2022/01/14 06:22:50;;;;;;;41.23;20.13;;;;;;;-5.78;100.00;101607.88;5089596;28;20035;-71
2022/01/14 06:25:16;;;;;;;39.87;19.97;;;;;;;-5.72;100.00;101594.44;5089723;28;20042;-72
2022/01/14 06:27:41;;;;;;;38.93;19.43;;;;;;;-5.66;100.00;101588.34;5089116;28;20429;-71
2022/01/14 06:30:07;;;;;;;36.07;18.87;;;;;;;-5.55;100.00;101590.50;5091248;28;20417;-71
2022/01/14 06:32:41;;;;;;;38.23;21.07;;;;;;;-5.80;100.00;101534.75;5093455;28;20024;-71
2022/01/14 06:35:11;;;;;;;39.07;19.43;;;;;;;-5.56;100.00;101579.56;5093162;28;20032;-71
2022/01/14 06:37:37;;;;;;;37.23;19.43;;;;;;;-5.61;100.00;101562.09;5093457;28;20020;-71
2022/01/14 06:40:04;;;;;;;35.77;18.97;;;;;;;-5.42;100.00;101588.72;5092713;28;20031;-71
2022/01/14 06:42:30;;;;;;;40.87;19.60;;;;;;;-5.50;100.00;101561.75;5093013;28;20028;-70
2022/01/14 06:44:55;;;;;;;36.00;20.00;;;;;;;-5.39;100.00;101575.63;5092278;28;20020;-70
2022/01/14 06:47:22;;;;;;;36.00;18.37;;;;;;;-5.34;100.00;101579.56;5091402;28;20065;-69
2022/01/14 06:49:48;;;;;;;37.07;20.00;;;;;;;-5.26;100.00;101581.38;5092973;28;20028;-70
2022/01/14 06:52:13;;;;;;;33.40;18.17;;;;;;;-5.32;100.00;101574.72;5092155;28;20050;-69
2022/01/14 06:54:39;;;;;;;38.47;20.33;;;;;;;-5.37;100.00;101542.34;5091912;28;20034;-70
2022/01/14 06:57:04;;;;;;;36.77;20.00;;;;;;;-5.26;100.00;101545.22;5091258;28;20044;-71
2022/01/14 06:59:30;;;;;;;33.60;18.20;;;;;;;-5.07;100.00;101570.91;5091946;28;20035;-71
2022/01/14 07:01:55;;;;;;;33.93;17.47;;;;;;;-5.17;100.00;101528.69;5091066;28;20046;-70
2022/01/14 07:04:21;;;;;;;35.20;17.97;;;;;;;-4.83;100.00;101569.47;5089558;28;20032;-70
2022/01/14 07:06:46;;;;;;;39.20;19.77;;;;;;;-4.95;100.00;101528.66;5092390;28;20027;-69
2022/01/14 07:09:12;;;;;;;46.00;23.63;;;;;;;-4.56;100.00;101589.38;5090990;28;20028;-70
2022/01/14 07:11:38;;;;;;;41.70;22.50;;;;;;;-4.53;100.00;101566.19;5090632;28;20085;-69
2022/01/14 07:14:05;;;;;;;46.37;22.97;;;;;;;-4.36;100.00;101568.09;5090979;28;20031;-70
2022/01/14 07:16:32;;;;;;;39.57;21.87;;;;;;;-4.26;100.00;101565.88;5058683;28;20522;-70
2022/01/14 07:19:01;;;;;;;37.23;20.87;;;;;;;-3.97;100.00;101571.72;5092207;28;20024;-69
2022/01/14 07:21:27;;;;;;;43.25;26.05;;;;;;;-3.84;100.00;101556.31;5091688;28;20032;-69
2022/01/14 07:23:52;;;;;;;35.40;20.47;;;;;;;-3.77;100.00;101543.66;5073542;28;20090;-69
2022/01/14 07:26:19;;;;;;;36.87;20.03;;;;;;;-3.72;100.00;101535.72;5091863;28;20550;-69
2022/01/14 07:28:45;;;;;;;36.97;21.40;;;;;;;-3.67;100.00;101519.47;5091955;28;20113;-69
2022/01/14 07:31:10;;;;;;;36.07;19.20;;;;;;;-3.61;100.00;101513.44;5091803;28;20115;-70
2022/01/14 07:33:36;;;;;;;33.57;19.03;;;;;;;-3.60;100.00;101514.34;5091949;28;20034;-70
2022/01/14 07:36:02;;;;;;;36.50;20.50;;;;;;;-3.41;100.00;101524.84;5092245;28;20116;-67
2022/01/14 07:38:27;;;;;;;37.87;19.93;;;;;;;-3.31;100.00;101527.63;5091331;28;20036;-70
2022/01/14 07:40:53;;;;;;;35.23;18.90;;;;;;;-3.26;100.00;101508.84;5090624;28;20043;-70
2022/01/14 07:43:20;;;;;;;34.07;18.93;;;;;;;-3.06;100.00;101514.28;5091649;28;20531;-70
2022/01/14 07:45:47;;;;;;;33.13;18.47;;;;;;;-2.96;99.49;101496.84;5091529;28;20082;-70
2022/01/14 07:48:12;;;;;;;32.57;18.03;;;;;;;-2.82;99.01;101500.84;5091734;28;22054;-70
2022/01/14 07:50:38;;;;;;;36.80;20.50;;;;;;;-2.69;99.50;101488.78;5091548;28;20027;-70
2022/01/14 07:53:04;;;;;;;34.97;19.93;;;;;;;-2.63;99.16;101470.81;5091149;28;20066;-70
2022/01/14 07:55:29;;;;;;;36.37;19.03;;;;;;;-2.62;97.53;101472.63;5091280;28;20461;-71
2022/01/14 07:57:54;;;;;;;37.80;19.93;;;;;;;-2.64;97.92;101462.34;5073367;28;20024;-70
2022/01/14 08:00:20;;;;;;;35.10;19.90;;;;;;;-2.35;98.66;101493.97;5091213;28;20063;-70
2022/01/14 08:02:46;;;;;;;35.03;19.23;;;;;;;-2.31;98.85;101489.38;5091735;28;20070;-70
2022/01/14 08:05:12;;;;;;;36.37;20.27;;;;;;;-2.34;99.78;101484.00;5091484;28;20035;-70
2022/01/14 08:07:44;;;;;;;31.73;19.23;;;;;;;-2.20;99.97;101470.25;5090735;28;20111;-71
2022/01/14 08:10:11;;;;;;;37.27;19.37;;;;;;;-2.21;100.00;101450.75;5090968;28;20028;-70
2022/01/14 08:12:36;;;;;;;36.70;20.23;;;;;;;-1.93;100.00;101468.81;5072490;28;20081;-70
2022/01/14 08:15:04;;;;;;;36.43;20.13;;;;;;;-1.73;98.73;101467.41;5090471;28;20518;-70
2022/01/14 08:17:31;;;;;;;35.53;18.97;;;;;;;-1.70;96.33;101439.88;5090363;28;20036;-70
2022/01/14 08:19:56;;;;;;;36.87;19.27;;;;;;;-1.58;94.95;101457.94;5090445;28;20039;-69
2022/01/14 08:22:22;;;;;;;34.47;18.07;;;;;;;-1.48;93.00;101442.94;5091169;28;20024;-70
2022/01/14 08:24:47;;;;;;;35.20;18.73;;;;;;;-1.52;92.21;101405.38;5091058;28;20036;-70
2022/01/14 08:27:13;;;;;;;34.83;17.63;;;;;;;-1.27;92.12;101441.69;5090537;28;20039;-71
2022/01/14 08:29:38;;;;;;;31.33;16.40;;;;;;;-1.29;92.79;101444.81;5091050;28;20012;-70
2022/01/14 08:32:04;;;;;;;35.93;18.37;;;;;;;-1.18;91.61;101439.16;5090486;28;20370;-70
2022/01/14 08:34:31;;;;;;;30.43;16.80;;;;;;;-1.11;91.90;101423.81;5090704;28;20016;-70
2022/01/14 08:36:57;;;;;;;34.87;18.93;;;;;;;-0.99;90.29;101432.63;5071922;28;20404;-71
2022/01/14 08:39:22;;;;;;;32.60;17.10;;;;;;;-1.04;89.76;101400.84;5090451;28;20024;-70
2022/01/14 08:41:48;;;;;;;39.10;17.50;;;;;;;-0.78;89.41;101438.03;5090530;28;20049;-70
2022/01/14 08:44:14;;;;;;;31.00;16.53;;;;;;;-0.72;88.28;101440.28;5090322;28;20058;-69
2022/01/14 08:46:41;;;;;;;33.77;18.70;;;;;;;-0.63;88.69;101438.63;5090593;28;20031;-70
2022/01/14 08:49:08;;;;;;;29.40;16.50;;;;;;;-0.58;88.54;101437.41;5090162;28;20049;-70
2022/01/14 08:51:36;;;;;;;34.90;17.93;;;;;;;-0.47;88.72;101432.47;5090547;28;20031;-70
2022/01/14 08:54:02;;;;;;;39.33;19.40;;;;;;;-0.68;87.43;101374.75;5090226;28;20099;-69
2022/01/14 08:56:31;;;;;;;30.03;17.17;;;;;;;-0.48;87.13;101415.50;5090186;28;20038;-69
2022/01/14 08:58:57;;;;;;;30.60;16.50;;;;;;;-0.83;88.62;101378.38;5089947;28;20024;-69
2022/01/14 09:01:23;;;;;;;31.90;17.33;;;;;;;-0.45;89.05;101408.16;5071835;28;20028;-70
2022/01/14 09:03:48;;;;;;;30.20;16.30;;;;;;;-0.48;87.72;101398.63;5089463;28;20123;-71
2022/01/14 09:06:15;;;;;;;35.40;17.00;;;;;;;-0.45;88.49;101390.41;5090187;28;20031;-70
2022/01/14 09:08:40;;;;;;;28.27;16.20;;;;;;;-0.47;87.92;101376.69;5090248;28;20032;-70
2022/01/14 09:11:07;;;;;;;26.03;14.57;;;;;;;-0.42;86.48;101390.72;5089982;28;20022;-69
2022/01/14 09:13:34;;;;;;;29.77;16.53;;;;;;;-0.43;87.73;101378.78;5090316;28;20046;-70
2022/01/14 09:15:59;;;;;;;35.20;16.70;;;;;;;-0.52;87.95;101372.06;5090078;28;20051;-70
2022/01/14 09:18:25;;;;;;;29.60;16.43;;;;;;;-0.44;87.91;101354.16;5089566;28;20040;-69
2022/01/14 09:20:51;;;;;;;30.87;16.33;;;;;;;-0.29;87.29;101368.28;5072253;28;20077;-69
2022/01/14 09:23:23;;;;;;;53.93;23.03;;;;;;;-0.20;85.95;101315.88;5090162;28;20467;-70
2022/01/14 09:25:50;;;;;;;31.47;15.37;;;;;;;0.12;84.07;101305.25;5090747;28;20031;-71
2022/01/14 09:28:16;;;;;;;27.70;15.50;;;;;;;0.16;84.68;101326.75;5090779;28;20031;-68
2022/01/14 09:30:41;;;;;;;24.93;13.23;;;;;;;-0.22;84.36;101269.16;5090933;28;20028;-70
2022/01/14 09:33:06;;;;;;;37.63;21.17;;;;;;;0.20;84.83;101292.38;5090206;28;20118;-71
2022/01/14 09:35:33;;;;;;;30.30;16.20;;;;;;;0.36;85.75;101317.53;5090284;28;20443;-70
2022/01/14 09:37:59;;;;;;;33.07;17.10;;;;;;;0.30;85.56;101292.50;5089982;28;20073;-70
2022/01/14 09:40:25;;;;;;;30.43;15.60;;;;;;;0.21;84.56;101253.53;5090135;28;20024;-70
2022/01/14 09:42:52;;;;;;;27.27;14.63;;;;;;;0.54;85.21;101292.94;5089996;28;20089;-68
2022/01/14 09:45:18;;;;;;;30.73;16.97;;;;;;;0.66;84.12;101278.78;5089333;28;20409;-71
2022/01/14 09:47:49;;;;;;;30.57;16.27;;;;;;;0.88;83.85;101290.84;5089448;28;20031;-70
2022/01/14 09:50:15;;;;;;;22.23;11.80;;;;;;;0.43;82.88;101238.59;5089328;28;20024;-72
2022/01/14 09:52:41;;;;;;;32.00;16.37;;;;;;;0.85;83.94;101272.78;5089424;28;20043;-71
2022/01/14 09:55:06;;;;;;;26.60;15.30;;;;;;;1.07;82.97;101261.22;5089573;28;20103;-71
2022/01/14 09:57:32;;;;;;;25.60;12.70;;;;;;;0.88;82.54;101257.81;5090150;28;20057;-72
2022/01/14 09:59:57;;;;;;;25.70;13.47;;;;;;;0.97;83.29;101271.31;5090207;28;20024;-69
2022/01/14 10:02:32;;;;;;;30.90;17.10;;;;;;;0.68;83.28;101208.63;5089733;28;20447;-70
2022/01/14 10:04:58;;;;;;;23.33;12.03;;;;;;;0.89;83.68;101239.25;5091353;28;20028;-70
2022/01/14 10:07:24;;;;;;;54.13;27.13;;;;;;;1.11;83.52;101240.38;5093557;28;20035;-72
2022/01/14 10:09:56;;;;;;;32.13;17.90;;;;;;;1.35;83.42;101233.09;5093396;28;20070;-72
2022/01/14 10:12:22;;;;;;;28.83;17.37;;;;;;;1.53;83.95;101225.25;5074027;28;20056;-72
2022/01/14 10:14:56;;;;;;;32.00;16.43;;;;;;;1.39;82.61;101209.69;5093689;28;20024;-72
2022/01/14 10:17:22;;;;;;;26.97;15.70;;;;;;;1.44;83.33;101200.78;5053594;28;20155;-68
2022/01/14 10:19:48;;;;;;;27.93;15.37;;;;;;;1.47;82.14;101169.66;5053661;28;20049;-68
2022/01/14 10:22:21;;;;;;;22.47;13.10;;;;;;;1.43;83.29;101173.59;5053337;28;20025;-69
2022/01/14 10:25:08;;;;;;;25.60;12.40;;;;;;;1.40;83.14;101211.47;5052903;28;20048;-71
2022/01/14 10:27:38;;;;;;;26.67;14.80;;;;;;;1.38;83.58;101161.22;5052426;28;20147;-70
2022/01/14 10:30:17;;;;;;;28.30;15.73;;;;;;;1.80;83.68;101200.34;5052298;28;20021;-71
2022/01/14 10:32:46;;;;;;;28.08;15.30;;;;;;;1.65;83.55;101144.84;5053010;28;20035;-71
2022/01/14 10:35:17;;;;;;;24.90;14.52;;;;;;;1.94;83.39;101189.66;5053029;28;20021;-70
2022/01/14 10:37:43;;;;;;;27.80;14.60;;;;;;;1.87;82.97;101167.91;5053240;28;20025;-71
2022/01/14 10:40:17;;;;;;;32.20;15.93;;;;;;;2.15;83.85;101176.91;5052969;28;20100;-68
2022/01/14 10:42:43;;;;;;;29.58;16.48;;;;;;;2.30;83.56;101159.44;5051358;28;20115;-69
2022/01/14 10:45:22;;;;;;;24.20;14.98;;;;;;;2.38;83.10;101153.28;5052662;28;20024;-69
2022/01/14 10:47:57;;;;;;;21.50;12.43;;;;;;;2.17;82.77;101142.25;5049984;28;20087;-71
2022/01/14 10:50:30;;;;;;;27.65;15.70;;;;;;;2.55;80.73;101134.28;5052857;28;20025;-67
2022/01/14 10:52:55;;;;;;;26.80;14.30;;;;;;;2.77;81.08;101129.22;5035201;28;20083;-70
2022/01/14 10:55:32;;;;;;;24.20;14.18;;;;;;;2.87;79.66;101125.75;5052576;28;20029;-69
2022/01/14 10:57:58;;;;;;;25.02;14.75;;;;;;;3.01;80.01;101114.06;5052564;28;20078;-70
2022/01/14 11:00:25;;;;;;;27.67;15.23;;;;;;;2.82;79.25;101096.44;5051869;28;20086;-68
2022/01/14 11:02:53;;;;;;;27.10;14.85;;;;;;;3.07;77.93;101095.00;5052751;28;20032;-69
2022/01/14 11:05:21;;;;;;;25.23;13.75;;;;;;;2.82;78.50;101040.34;5053199;28;20025;-70
2022/01/14 11:07:49;;;;;;;24.52;14.60;;;;;;;3.24;78.13;101085.22;5053130;28;20533;-70
2022/01/14 11:10:18;;;;;;;32.83;16.65;;;;;;;3.34;78.06;101079.13;5053165;28;20035;-69
2022/01/14 11:12:44;;;;;;;;;;;;;;;3.34;78.52;101072.38;5053701;28;20025;-72
2022/01/14 11:15:11;;;;;;;24.30;14.35;;;;;;;3.42;78.83;101069.53;5057207;28;19912;-71
2022/01/14 11:17:38;;;;;;;27.50;14.77;;;;;;;3.57;78.43;101050.25;5085320;28;20440;-71
2022/01/14 11:20:06;;;;;;;22.70;13.90;;;;;;;3.73;77.37;101027.59;5089346;28;20043;-68
2022/01/14 11:25:16;;;;;;;25.85;13.60;;;;;;;3.72;77.25;101013.06;5093048;28;20039;-70
2022/01/14 11:27:49;;;;;;;22.73;14.32;;;;;;;3.95;78.04;101026.63;5091617;28;20036;-72
2022/01/14 11:30:15;;;;;;;26.48;14.50;;;;;;;3.84;79.04;101023.28;5091618;28;20024;-70
2022/01/14 11:33:09;;;;;;;22.02;14.38;;;;;;;3.77;78.85;101023.63;5092158;28;20028;-70
2022/01/14 11:35:37;;;;;;;22.02;13.88;;;;;;;3.95;78.78;101010.41;5005419;28;20125;-71
2022/01/14 11:38:23;;;;;;;22.38;13.75;;;;;;;4.08;80.29;101010.50;5002522;28;20041;-70